Time,TemperatureF,DewpointF,PressureIn,WindDirection,WindDirectionDegrees,WindSpeedMPH,WindSpeedGustMPH,Humidity,HourlyPrecipIn,Conditions,Clouds,dailyrainin,SolarRadiationWatts/m^2,SoftwareType,DateUTC
2013-07-11 00:01:00,68.0,61.0,29.98,NNW,338,0.0,0.0,78,0.00,,,-99.99,0.000000,,2013-07-11 04:01:00,
2013-07-11 00:12:00,68.0,61.0,29.98,NNW,338,0.0,0.0,78,0.00,,,-99.99,0.000000,,2013-07-11 04:12:00,
2013-07-11 00:22:00,66.0,59.0,29.98,NNW,337,0.0,0.0,78,0.00,,,-99.99,0.000000,,2013-07-11 04:22:00,
2013-07-11 00:32:00,66.0,59.0,29.98,NNW,337,0.0,0.0,78,0.00,,,-99.99,0.000000,,2013-07-11 04:32:00,
2013-07-11 00:43:00,66.0,59.0,29.98,NNW,337,0.0,0.0,78,0.00,,,-99.99,0.000000,,2013-07-11 04:43:00,
2013-07-11 01:02:00,65.0,59.0,29.97,NNW,337,0.0,4.0,80,0.00,,,-99.99,0.000000,,2013-07-11 05:02:00,
2013-07-11 01:12:00,65.0,59.0,29.97,NNW,338,0.0,4.0,80,0.00,,,-99.99,0.000000,,2013-07-11 05:12:00,
2013-07-11 01:22:00,64.0,58.0,29.97,NNW,338,0.0,0.0,80,0.00,,,-99.99,0.000000,,2013-07-11 05:22:00,
2013-07-11 01:32:00,64.0,58.0,29.97,NNW,338,0.0,0.0,80,0.00,,,-99.99,0.000000,,2013-07-11 05:32:00,
2013-07-11 01:43:00,64.0,58.0,29.97,NNW,338,0.0,0.0,80,0.00,,,-99.99,0.000000,,2013-07-11 05:43:00,
2013-07-11 01:52:00,64.0,58.0,29.97,NNW,338,4.0,6.0,82,0.00,,,-99.99,0.000000,,2013-07-11 05:52:00,
2013-07-11 02:01:00,63.0,58.0,29.96,NNW,338,4.0,5.0,84,0.00,,,-99.99,0.000000,,2013-07-11 06:01:00,
2013-07-11 02:12:00,63.0,58.0,29.96,NNW,338,4.0,5.0,84,0.00,,,-99.99,0.000000,,2013-07-11 06:12:00,
2013-07-11 02:22:00,62.0,57.0,29.96,NNW,337,1.0,5.0,85,0.00,,,-99.99,0.000000,,2013-07-11 06:22:00,
2013-07-11 02:32:00,62.0,57.0,29.97,NNW,338,0.0,5.0,85,0.00,,,-99.99,0.000000,,2013-07-11 06:32:00,
2013-07-11 02:43:00,62.0,57.0,29.97,NNW,338,0.0,5.0,85,0.00,,,-99.99,0.000000,,2013-07-11 06:43:00,
2013-07-11 02:53:00,62.0,58.0,29.97,NNW,337,0.0,0.0,86,0.00,,,-99.99,0.000000,,2013-07-11 06:53:00,
2013-07-11 03:02:00,62.0,58.0,29.97,NNW,338,3.0,5.0,86,0.00,,,-99.99,0.000000,,2013-07-11 07:02:00,
2013-07-11 03:12:00,62.0,58.0,29.97,NNW,338,3.0,5.0,86,0.00,,,-99.99,0.000000,,2013-07-11 07:12:00,
2013-07-11 03:22:00,61.0,57.0,29.98,NNW,337,0.0,5.0,87,0.00,,,-99.99,0.000000,,2013-07-11 07:22:00,
2013-07-11 03:32:00,61.0,57.0,29.98,NNW,338,0.0,0.0,87,0.00,,,-99.99,0.000000,,2013-07-11 07:32:00,
2013-07-11 03:45:00,61.0,57.0,29.98,NNW,338,0.0,0.0,87,0.00,,,-99.99,0.000000,,2013-07-11 07:45:00,
2013-07-11 03:53:00,61.0,57.0,29.98,NNW,337,0.0,4.0,88,0.00,,,-99.99,0.000000,,2013-07-11 07:53:00,
2013-07-11 04:02:00,60.0,57.0,29.98,NNW,338,0.0,0.0,89,0.00,,,-99.99,0.000000,,2013-07-11 08:02:00,
2013-07-11 04:12:00,60.0,57.0,29.98,NNW,338,0.0,0.0,89,0.00,,,-99.99,0.000000,,2013-07-11 08:12:00,
2013-07-11 04:22:00,60.0,57.0,29.98,NNW,338,4.0,5.0,89,0.00,,,-99.99,0.000000,,2013-07-11 08:22:00,
2013-07-11 04:34:00,60.0,57.0,29.98,NNW,338,4.0,6.0,90,0.00,,,-99.99,0.000000,,2013-07-11 08:34:00,
2013-07-11 04:43:00,60.0,57.0,29.98,NNW,338,4.0,6.0,90,0.00,,,-99.99,0.000000,,2013-07-11 08:43:00,
2013-07-11 04:53:00,60.0,57.0,29.98,NNW,337,5.0,7.0,90,0.00,,,-99.99,0.000000,,2013-07-11 08:53:00,
2013-07-11 05:03:00,60.0,57.0,29.98,NNW,336,6.0,7.0,90,0.00,,,-99.99,0.000000,,2013-07-11 09:03:00,
2013-07-11 05:12:00,60.0,57.0,29.98,NNW,336,6.0,7.0,90,0.00,,,-99.99,0.000000,,2013-07-11 09:12:00,
2013-07-11 05:21:00,60.0,57.0,29.99,NNW,336,4.0,6.0,90,0.00,,,-99.99,0.000000,,2013-07-11 09:21:00,
2013-07-11 05:33:00,60.0,57.0,29.99,NNW,336,4.0,6.0,90,0.00,,,-99.99,0.000000,,2013-07-11 09:33:00,
2013-07-11 05:43:00,59.0,56.0,29.99,NNW,336,0.0,5.0,91,0.00,,,-99.99,0.000000,,2013-07-11 09:43:00,
2013-07-11 05:53:00,59.0,56.0,29.99,NNW,336,1.0,4.0,90,0.00,,,-99.99,0.000000,,2013-07-11 09:53:00,
2013-07-11 06:01:00,59.0,56.0,29.99,NNW,336,1.0,4.0,90,0.00,,,-99.99,0.000000,,2013-07-11 10:01:00,
2013-07-11 06:12:00,60.0,57.0,30.00,NNW,336,1.0,5.0,90,0.00,,,-99.99,0.000000,,2013-07-11 10:12:00,
2013-07-11 06:22:00,60.0,57.0,30.00,NNW,336,0.0,1.0,89,0.00,,,-99.99,0.000000,,2013-07-11 10:22:00,
2013-07-11 06:33:00,60.0,57.0,30.00,NNW,336,0.0,1.0,89,0.00,,,-99.99,0.000000,,2013-07-11 10:33:00,
2013-07-11 06:43:00,59.0,56.0,30.01,NNW,336,0.0,2.0,89,0.00,,,-99.99,0.000000,,2013-07-11 10:43:00,
2013-07-11 06:52:00,59.0,56.0,30.01,NNW,340,2.0,7.0,89,0.00,,,-99.99,9.000000,,2013-07-11 10:52:00,
2013-07-11 07:02:00,59.0,56.0,30.01,NNW,340,2.0,7.0,89,0.00,,,-99.99,9.000000,,2013-07-11 11:02:00,
2013-07-11 07:12:00,59.0,56.0,30.02,NNW,340,1.0,5.0,89,0.00,,,-99.99,16.000000,,2013-07-11 11:12:00,
2013-07-11 07:22:00,60.0,57.0,30.02,NNW,342,3.0,5.0,89,0.00,,,-99.99,25.000000,,2013-07-11 11:22:00,
2013-07-11 07:32:00,60.0,57.0,30.02,NNW,342,3.0,5.0,89,0.00,,,-99.99,25.000000,,2013-07-11 11:32:00,
2013-07-11 07:43:00,60.0,57.0,30.03,NNW,344,3.0,6.0,89,0.00,,,-99.99,51.000000,,2013-07-11 11:43:00,
2013-07-11 07:53:00,61.0,57.0,30.02,NNE,15,7.0,10.0,87,0.00,,,-99.99,86.000000,,2013-07-11 11:53:00,
2013-07-11 08:01:00,61.0,57.0,30.02,NNE,15,7.0,10.0,87,0.00,,,-99.99,86.000000,,2013-07-11 12:01:00,
2013-07-11 08:12:00,62.0,57.0,30.03,NNW,346,5.0,12.0,85,0.00,,,-99.99,102.000000,,2013-07-11 12:12:00,
2013-07-11 08:22:00,64.0,59.0,30.03,North,360,5.0,13.0,83,0.00,,,-99.99,81.000000,,2013-07-11 12:22:00,
2013-07-11 08:33:00,64.0,59.0,30.03,North,360,5.0,13.0,83,0.00,,,-99.99,81.000000,,2013-07-11 12:33:00,
2013-07-11 08:43:00,64.0,59.0,30.03,North,360,5.0,13.0,83,0.00,,,-99.99,81.000000,,2013-07-11 12:43:00,
2013-07-11 09:02:00,67.0,60.0,30.04,North,5,8.0,12.0,78,0.00,,,-99.99,311.000000,,2013-07-11 13:02:00,
2013-07-11 09:13:00,67.0,60.0,30.04,North,5,8.0,12.0,78,0.00,,,-99.99,311.000000,,2013-07-11 13:13:00,
2013-07-11 09:34:00,68.0,61.0,30.04,NNE,22,6.0,13.0,77,0.00,,,-99.99,292.000000,,2013-07-11 13:34:00,
2013-07-11 09:45:00,68.0,60.0,30.04,NNE,32,6.0,12.0,75,0.00,,,-99.99,403.000000,,2013-07-11 13:45:00,
2013-07-11 10:05:00,70.0,61.0,30.04,North,5,7.0,15.0,72,0.00,,,-99.99,536.000000,,2013-07-11 14:05:00,
2013-07-11 10:15:00,70.0,61.0,30.04,North,5,7.0,15.0,72,0.00,,,-99.99,536.000000,,2013-07-11 14:15:00,
2013-07-11 10:24:00,70.0,60.0,30.04,NNE,15,7.0,15.0,71,0.00,,,-99.99,566.000000,,2013-07-11 14:24:00,
2013-07-11 10:35:00,70.0,60.0,30.04,NNE,15,7.0,15.0,71,0.00,,,-99.99,566.000000,,2013-07-11 14:35:00,
2013-07-11 10:45:00,71.0,60.0,30.04,NE,38,11.0,14.0,69,0.00,,,-99.99,561.000000,,2013-07-11 14:45:00,
2013-07-11 10:55:00,71.0,59.0,30.04,NNE,32,9.0,15.0,67,0.00,,,-99.99,526.000000,,2013-07-11 14:55:00,
2013-07-11 11:05:00,72.0,60.0,30.05,NNE,32,3.0,14.0,67,0.00,,,-99.99,504.000000,,2013-07-11 15:05:00,
2013-07-11 11:13:00,72.0,60.0,30.05,NNE,32,3.0,14.0,67,0.00,,,-99.99,504.000000,,2013-07-11 15:13:00,
2013-07-11 11:24:00,72.0,59.0,30.05,NE,39,14.0,18.0,64,0.00,,,-99.99,534.000000,,2013-07-11 15:24:00,
2013-07-11 12:06:00,73.0,61.0,30.05,NNE,31,4.0,15.0,66,0.00,,,-99.99,742.000000,,2013-07-11 16:06:00,
2013-07-11 12:15:00,73.0,60.0,30.05,NNW,347,8.0,13.0,63,0.00,,,-99.99,200.000000,,2013-07-11 16:15:00,
2013-07-11 12:25:00,72.0,59.0,30.06,NNW,346,8.0,15.0,64,0.00,,,-99.99,795.000000,,2013-07-11 16:25:00,
2013-07-11 12:35:00,72.0,59.0,30.06,NNW,346,8.0,15.0,64,0.00,,,-99.99,795.000000,,2013-07-11 16:35:00,
2013-07-11 12:56:00,73.0,60.0,30.06,NE,35,8.0,12.0,64,0.00,,,-99.99,264.000000,,2013-07-11 16:56:00,
2013-07-11 13:26:00,75.0,59.0,30.06,NE,52,5.0,13.0,58,0.00,,,-99.99,810.000000,,2013-07-11 17:26:00,
2013-07-11 13:38:00,75.0,59.0,30.06,NE,52,5.0,13.0,58,0.00,,,-99.99,810.000000,,2013-07-11 17:38:00,
2013-07-11 13:46:00,74.0,58.0,30.06,NNE,28,12.0,15.0,58,0.00,,,-99.99,223.000000,,2013-07-11 17:46:00,
2013-07-11 13:56:00,75.0,61.0,30.06,NE,40,8.0,14.0,61,0.00,,,-99.99,1074.000000,,2013-07-11 17:56:00,
2013-07-11 14:05:00,75.0,61.0,30.06,NE,40,8.0,14.0,61,0.00,,,-99.99,1074.000000,,2013-07-11 18:05:00,
2013-07-11 14:35:00,75.0,58.0,30.05,NNE,28,8.0,16.0,56,0.00,,,0.54,1076.000000,,2013-07-11 18:35:00,
2013-07-11 15:04:00,76.0,58.0,30.05,North,5,7.0,19.0,53,0.00,,,0.00,965.000000,,2013-07-11 19:04:00,
2013-07-11 15:13:00,76.0,58.0,30.05,North,5,7.0,19.0,53,0.00,,,0.00,965.000000,,2013-07-11 19:13:00,
2013-07-11 15:24:00,76.0,58.0,30.05,North,5,3.0,13.0,54,0.00,,,0.00,967.000000,,2013-07-11 19:24:00,
2013-07-11 15:38:00,76.0,58.0,30.05,North,5,3.0,13.0,54,0.00,,,0.00,967.000000,,2013-07-11 19:38:00,
2013-07-11 15:45:00,76.0,58.0,30.05,North,5,3.0,13.0,54,0.00,,,0.00,967.000000,,2013-07-11 19:45:00,
2013-07-11 15:57:00,76.0,59.0,30.05,NE,41,9.0,14.0,55,0.00,,,0.00,995.000000,,2013-07-11 19:57:00,
2013-07-11 16:06:00,76.0,59.0,30.05,NE,41,9.0,14.0,55,0.00,,,0.00,995.000000,,2013-07-11 20:06:00,
2013-07-11 16:13:00,76.0,57.0,30.05,NNE,16,11.0,16.0,52,0.00,,,0.00,944.000000,,2013-07-11 20:13:00,
2013-07-11 16:26:00,76.0,57.0,30.05,NNE,16,11.0,16.0,52,0.00,,,0.00,944.000000,,2013-07-11 20:26:00,
2013-07-11 16:37:00,76.0,57.0,30.05,NNE,16,11.0,16.0,52,0.00,,,0.00,944.000000,,2013-07-11 20:37:00,
2013-07-11 16:56:00,76.0,59.0,30.04,NNE,14,6.0,11.0,55,0.00,,,0.00,821.000000,,2013-07-11 20:56:00,
2013-07-11 17:05:00,76.0,59.0,30.04,NNE,14,6.0,11.0,55,0.00,,,0.00,821.000000,,2013-07-11 21:05:00,
2013-07-11 17:15:00,76.0,59.0,30.04,NNE,14,6.0,11.0,55,0.00,,,0.00,821.000000,,2013-07-11 21:15:00,
2013-07-11 17:36:00,77.0,59.0,30.03,NNE,19,5.0,12.0,53,0.00,,,0.00,798.000000,,2013-07-11 21:36:00,
2013-07-11 17:46:00,77.0,59.0,30.03,NNE,19,5.0,12.0,53,0.00,,,0.00,798.000000,,2013-07-11 21:46:00,
2013-07-11 17:58:00,78.0,59.0,30.03,NNE,24,8.0,13.0,52,0.00,,,0.00,668.000000,,2013-07-11 21:58:00,
2013-07-11 18:05:00,78.0,58.0,30.03,NNE,17,6.0,13.0,50,0.00,,,0.00,592.000000,,2013-07-11 22:05:00,
2013-07-11 18:17:00,78.0,58.0,30.03,NNE,17,6.0,13.0,50,0.00,,,0.00,592.000000,,2013-07-11 22:17:00,
2013-07-11 18:47:00,79.0,59.0,30.03,NNW,342,5.0,10.0,51,0.00,,,0.00,497.000000,,2013-07-11 22:47:00,
2013-07-11 18:55:00,78.0,58.0,30.03,NNE,15,6.0,12.0,51,0.00,,,0.00,450.000000,,2013-07-11 22:55:00,
2013-07-11 19:06:00,78.0,58.0,30.03,NNE,15,6.0,12.0,51,0.00,,,0.00,450.000000,,2013-07-11 23:06:00,
2013-07-11 19:13:00,78.0,58.0,30.03,North,360,7.0,14.0,50,0.00,,,0.00,397.000000,,2013-07-11 23:13:00,
2013-07-11 19:26:00,78.0,58.0,30.03,North,360,7.0,14.0,50,0.00,,,0.00,397.000000,,2013-07-11 23:26:00,
2013-07-11 19:35:00,78.0,58.0,30.03,North,360,7.0,14.0,50,0.00,,,0.00,397.000000,,2013-07-11 23:35:00,
2013-07-11 19:46:00,79.0,59.0,30.03,NNW,345,2.0,9.0,51,0.00,,,0.00,301.000000,,2013-07-11 23:46:00,
2013-07-11 20:00:00,78.0,59.0,30.03,NNW,333,2.0,9.0,53,0.00,,,0.00,257.000000,,2013-07-12 00:00:00,
2013-07-11 20:05:00,78.0,60.0,30.03,NNW,340,1.0,10.0,54,0.00,,,0.00,197.000000,,2013-07-12 00:05:00,
2013-07-11 20:14:00,78.0,60.0,30.03,NNW,340,1.0,10.0,54,0.00,,,0.00,197.000000,,2013-07-12 00:14:00,
2013-07-11 20:36:00,77.0,61.0,30.02,NNW,333,0.0,3.0,57,0.00,,,0.00,93.000000,,2013-07-12 00:36:00,
2013-07-11 20:58:00,77.0,62.0,30.02,NNW,333,0.0,0.0,60,0.00,,,0.00,53.000000,,2013-07-12 00:58:00,
2013-07-11 21:05:00,76.0,62.0,30.02,NNW,333,0.0,0.0,61,0.00,,,0.00,25.000000,,2013-07-12 01:05:00,
2013-07-11 21:13:00,76.0,62.0,30.02,NNW,333,0.0,0.0,61,0.00,,,0.00,25.000000,,2013-07-12 01:13:00,
2013-07-11 21:26:00,76.0,62.0,30.02,NNW,333,0.0,0.0,61,0.00,,,0.00,25.000000,,2013-07-12 01:26:00,
2013-07-11 21:37:00,76.0,62.0,30.02,NNW,333,0.0,0.0,61,0.00,,,0.00,25.000000,,2013-07-12 01:37:00,
2013-07-11 21:46:00,76.0,62.0,30.02,NNW,333,0.0,0.0,61,0.00,,,0.00,25.000000,,2013-07-12 01:46:00,
2013-07-11 22:36:00,68.0,59.0,30.03,NNW,336,3.0,6.0,73,0.00,,,0.00,0.000000,,2013-07-12 02:36:00,
2013-07-11 22:46:00,68.0,59.0,30.03,NNW,336,3.0,6.0,73,0.00,,,0.00,0.000000,,2013-07-12 02:46:00,
2013-07-11 22:55:00,67.0,58.0,30.03,NNW,336,0.0,1.0,74,0.00,,,0.00,0.000000,,2013-07-12 02:55:00,
2013-07-11 23:03:00,67.0,58.0,30.03,NNW,336,0.0,1.0,74,0.00,,,0.00,0.000000,,2013-07-12 03:03:00,
2013-07-11 23:14:00,67.0,58.0,30.03,NNW,336,0.0,1.0,74,0.00,,,0.00,0.000000,,2013-07-12 03:14:00,
2013-07-11 23:25:00,66.0,58.0,30.03,NNW,336,6.0,7.0,75,0.00,,,0.00,0.000000,,2013-07-12 03:25:00,
2013-07-11 23:37:00,66.0,58.0,30.03,NNW,336,6.0,7.0,75,0.00,,,0.00,0.000000,,2013-07-12 03:37:00,
2013-07-11 23:46:00,66.0,58.0,30.03,NNW,336,6.0,7.0,75,0.00,,,0.00,0.000000,,2013-07-12 03:46:00,
2013-07-11 23:56:00,65.0,57.0,30.03,NNW,336,4.0,5.0,76,0.00,,,0.00,0.000000,,2013-07-12 03:56:00,